Time,TemperatureF,DewpointF,PressureIn,WindDirection,WindDirectionDegrees,WindSpeedMPH,WindSpeedGustMPH,Humidity,HourlyPrecipIn,Conditions,Clouds,dailyrainin,SolarRadiationWatts/m^2,SoftwareType,DateUTC
2013-05-28 00:11:00,62.9,57.0,29.91,South,172,0.0,-999.0,82,-99.99,,,0.00,0,weatherlink.com 1.10,2013-05-28 07:11:00,
2013-05-28 00:26:00,62.8,57.0,29.91,SSW,200,0.0,-999.0,82,-99.99,,,0.00,0,weatherlink.com 1.10,2013-05-28 07:26:00,
2013-05-28 00:41:00,62.8,57.0,29.91,South,188,0.0,-999.0,82,-99.99,,,0.00,0,weatherlink.com 1.10,2013-05-28 07:41:00,
2013-05-28 00:56:00,62.7,57.0,29.90,SSE,168,0.0,-999.0,82,-99.99,,,0.00,0,weatherlink.com 1.10,2013-05-28 07:56:00,
2013-05-28 01:11:00,62.7,57.0,29.89,SE,139,2.0,-999.0,81,-99.99,,,0.00,0,weatherlink.com 1.10,2013-05-28 08:11:00,
2013-05-28 01:26:00,62.6,56.0,29.89,SSE,154,3.0,-999.0,80,-99.99,,,0.00,0,weatherlink.com 1.10,2013-05-28 08:26:00,
2013-05-28 01:41:00,62.5,57.0,29.89,East,97,1.0,-999.0,81,-99.99,,,0.00,0,weatherlink.com 1.10,2013-05-28 08:41:00,
2013-05-28 01:56:00,62.4,57.0,29.89,SE,129,0.0,-999.0,81,-99.99,,,0.00,0,weatherlink.com 1.10,2013-05-28 08:56:00,
2013-05-28 02:11:00,62.4,57.0,29.88,SE,128,2.0,-999.0,81,-99.99,,,0.00,0,weatherlink.com 1.10,2013-05-28 09:11:00,
2013-05-28 02:26:00,62.4,57.0,29.88,SSE,148,0.0,-999.0,81,-99.99,,,0.00,0,weatherlink.com 1.10,2013-05-28 09:26:00,
2013-05-28 02:41:00,62.2,56.0,29.88,SSW,209,1.0,-999.0,81,-99.99,,,0.00,0,weatherlink.com 1.10,2013-05-28 09:41:00,
2013-05-28 02:56:00,62.0,56.0,29.89,SSE,156,0.0,-999.0,81,-99.99,,,0.00,0,weatherlink.com 1.10,2013-05-28 09:56:00,
2013-05-28 03:11:00,61.9,56.0,29.89,South,188,1.0,-999.0,82,-99.99,,,0.00,0,weatherlink.com 1.10,2013-05-28 10:11:00,
2013-05-28 03:26:00,61.7,56.0,29.89,West,264,0.0,-999.0,82,-99.99,,,0.00,0,weatherlink.com 1.10,2013-05-28 10:26:00,
2013-05-28 03:41:00,61.6,56.0,29.87,SE,124,2.0,-999.0,82,-99.99,,,0.00,0,weatherlink.com 1.10,2013-05-28 10:41:00,
2013-05-28 03:56:00,61.7,56.0,29.87,East,91,0.0,-999.0,82,-99.99,,,0.00,0,weatherlink.com 1.10,2013-05-28 10:56:00,
2013-05-28 04:11:00,61.7,56.0,29.86,East,85,0.0,-999.0,82,-99.99,,,0.00,0,weatherlink.com 1.10,2013-05-28 11:11:00,
2013-05-28 04:26:00,61.6,56.0,29.86,ENE,75,0.0,-999.0,81,-99.99,,,0.00,0,weatherlink.com 1.10,2013-05-28 11:26:00,
2013-05-28 04:41:00,61.4,56.0,29.86,ENE,75,0.0,-999.0,81,-99.99,,,0.00,0,weatherlink.com 1.10,2013-05-28 11:41:00,
2013-05-28 04:56:00,61.4,56.0,29.87,ENE,75,0.0,-999.0,82,-99.99,,,0.00,0,weatherlink.com 1.10,2013-05-28 11:56:00,
2013-05-28 05:11:00,61.1,56.0,29.86,ENE,75,0.0,-999.0,82,-99.99,,,0.00,0,weatherlink.com 1.10,2013-05-28 12:11:00,
2013-05-28 05:26:00,60.9,55.0,29.85,ENE,75,0.0,-999.0,82,-99.99,,,0.00,0,weatherlink.com 1.10,2013-05-28 12:26:00,
2013-05-28 05:41:00,60.8,55.0,29.86,ENE,75,0.0,-999.0,82,-99.99,,,0.00,0,weatherlink.com 1.10,2013-05-28 12:41:00,
2013-05-28 05:56:00,60.9,55.0,29.85,ENE,75,0.0,-999.0,82,-99.99,,,0.00,5,weatherlink.com 1.10,2013-05-28 12:56:00,
2013-05-28 06:11:00,61.1,56.0,29.86,ENE,75,0.0,-999.0,82,-99.99,,,0.00,11,weatherlink.com 1.10,2013-05-28 13:11:00,
2013-05-28 06:26:00,61.0,56.0,29.86,ENE,75,0.0,-999.0,82,-99.99,,,0.00,18,weatherlink.com 1.10,2013-05-28 13:26:00,
2013-05-28 06:42:00,61.3,56.0,29.87,ENE,75,0.0,-999.0,82,-99.99,,,0.00,25,weatherlink.com 1.10,2013-05-28 13:42:00,
2013-05-28 06:57:00,61.5,55.0,29.87,East,80,0.0,-999.0,80,-99.99,,,0.00,40,weatherlink.com 1.10,2013-05-28 13:57:00,
2013-05-28 07:12:00,62.0,56.0,29.87,ESE,119,0.0,-999.0,80,-99.99,,,0.00,53,weatherlink.com 1.10,2013-05-28 14:12:00,
2013-05-28 07:27:00,62.4,56.0,29.87,SE,136,3.0,-999.0,79,-99.99,,,0.00,95,weatherlink.com 1.10,2013-05-28 14:27:00,
2013-05-28 07:42:00,62.9,56.0,29.87,South,179,3.0,-999.0,77,-99.99,,,0.00,130,weatherlink.com 1.10,2013-05-28 14:42:00,
2013-05-28 07:57:00,63.2,56.0,29.88,SE,146,0.0,-999.0,77,-99.99,,,0.00,151,weatherlink.com 1.10,2013-05-28 14:57:00,
2013-05-28 08:12:00,63.8,56.0,29.87,ENE,69,0.0,-999.0,76,-99.99,,,0.00,290,weatherlink.com 1.10,2013-05-28 15:12:00,
2013-05-28 08:27:00,64.4,56.0,29.87,SE,131,2.0,-999.0,74,-99.99,,,0.00,186,weatherlink.com 1.10,2013-05-28 15:27:00,
2013-05-28 08:42:00,64.6,56.0,29.87,ENE,59,0.0,-999.0,74,-99.99,,,0.00,156,weatherlink.com 1.10,2013-05-28 15:42:00,
2013-05-28 08:57:00,64.9,56.0,29.87,ENE,66,0.0,-999.0,73,-99.99,,,0.00,302,weatherlink.com 1.10,2013-05-28 15:57:00,
2013-05-28 09:12:00,66.0,56.0,29.87,SE,124,0.0,-999.0,71,-99.99,,,0.00,329,weatherlink.com 1.10,2013-05-28 16:12:00,
2013-05-28 09:27:00,66.9,57.0,29.87,ESE,110,1.0,-999.0,70,-99.99,,,0.00,714,weatherlink.com 1.10,2013-05-28 16:27:00,
2013-05-28 09:42:00,69.2,57.0,29.86,SSE,167,0.0,-999.0,66,-99.99,,,0.00,877,weatherlink.com 1.10,2013-05-28 16:42:00,
2013-05-28 09:57:00,70.1,57.0,29.86,West,261,4.0,-999.0,63,-99.99,,,0.00,436,weatherlink.com 1.10,2013-05-28 16:57:00,
2013-05-28 10:12:00,69.2,56.0,29.86,WSW,252,0.0,-999.0,64,-99.99,,,0.00,285,weatherlink.com 1.10,2013-05-28 17:12:00,
2013-05-28 10:27:00,68.9,57.0,29.87,WSW,254,5.0,-999.0,66,-99.99,,,0.00,258,weatherlink.com 1.10,2013-05-28 17:27:00,
2013-05-28 10:42:00,69.1,57.0,29.87,ENE,57,2.0,-999.0,66,-99.99,,,0.00,626,weatherlink.com 1.10,2013-05-28 17:42:00,
2013-05-28 10:57:00,71.1,58.0,29.87,West,269,1.0,-999.0,64,-99.99,,,0.00,1011,weatherlink.com 1.10,2013-05-28 17:57:00,
2013-05-28 11:13:00,73.0,58.0,29.86,North,3,0.0,-999.0,59,-99.99,,,0.00,909,weatherlink.com 1.10,2013-05-28 18:13:00,
2013-05-28 11:28:00,73.4,59.0,29.86,SSE,159,7.0,-999.0,60,-99.99,,,0.00,1067,weatherlink.com 1.10,2013-05-28 18:28:00,
2013-05-28 11:43:00,72.8,58.0,29.84,East,79,2.0,-999.0,60,-99.99,,,0.00,949,weatherlink.com 1.10,2013-05-28 18:43:00,
2013-05-28 12:13:00,72.6,58.0,29.84,West,276,1.0,-999.0,61,-99.99,,,0.00,1016,weatherlink.com 1.10,2013-05-28 19:13:00,
2013-05-28 12:28:00,73.5,59.0,29.84,West,259,4.0,-999.0,60,-99.99,,,0.00,287,weatherlink.com 1.10,2013-05-28 19:28:00,
2013-05-28 12:43:00,72.8,59.0,29.84,SW,214,4.0,-999.0,62,-99.99,,,0.00,986,weatherlink.com 1.10,2013-05-28 19:43:00,
2013-05-28 12:58:00,73.1,59.0,29.84,NNW,346,0.0,-999.0,61,-99.99,,,0.00,856,weatherlink.com 1.10,2013-05-28 19:58:00,
2013-05-28 13:13:00,73.7,59.0,29.83,WNW,291,1.0,-999.0,60,-99.99,,,0.00,954,weatherlink.com 1.10,2013-05-28 20:13:00,
2013-05-28 13:28:00,74.4,59.0,29.83,WSW,250,0.0,-999.0,58,-99.99,,,0.00,939,weatherlink.com 1.10,2013-05-28 20:28:00,
2013-05-28 13:43:00,74.1,59.0,29.83,WSW,255,5.0,-999.0,59,-99.99,,,0.00,930,weatherlink.com 1.10,2013-05-28 20:43:00,
2013-05-28 13:58:00,74.9,59.0,29.83,NW,304,0.0,-999.0,58,-99.99,,,0.00,933,weatherlink.com 1.10,2013-05-28 20:58:00,
2013-05-28 14:13:00,74.6,59.0,29.82,WSW,257,4.0,-999.0,58,-99.99,,,0.00,877,weatherlink.com 1.10,2013-05-28 21:13:00,
2013-05-28 14:28:00,75.0,59.0,29.82,WSW,238,5.0,-999.0,58,-99.99,,,0.00,851,weatherlink.com 1.10,2013-05-28 21:28:00,
2013-05-28 14:43:00,75.8,60.0,29.81,WSW,255,6.0,-999.0,58,-99.99,,,0.00,823,weatherlink.com 1.10,2013-05-28 21:43:00,
2013-05-28 14:58:00,76.3,60.0,29.81,SW,224,6.0,-999.0,58,-99.99,,,0.00,802,weatherlink.com 1.10,2013-05-28 21:58:00,
2013-05-28 15:13:00,75.0,60.0,29.81,WSW,250,6.0,-999.0,60,-99.99,,,0.00,768,weatherlink.com 1.10,2013-05-28 22:13:00,
2013-05-28 15:28:00,75.0,60.0,29.81,NNW,338,0.0,-999.0,60,-99.99,,,0.00,729,weatherlink.com 1.10,2013-05-28 22:28:00,
2013-05-28 15:43:00,74.7,60.0,29.81,West,268,4.0,-999.0,61,-99.99,,,0.00,691,weatherlink.com 1.10,2013-05-28 22:43:00,
2013-05-28 15:58:00,74.8,60.0,29.80,SW,215,5.0,-999.0,60,-99.99,,,0.00,649,weatherlink.com 1.10,2013-05-28 22:58:00,
2013-05-28 16:13:00,75.1,60.0,29.80,NW,319,2.0,-999.0,59,-99.99,,,0.00,608,weatherlink.com 1.10,2013-05-28 23:13:00,
2013-05-28 16:28:00,74.5,60.0,29.80,WSW,243,2.0,-999.0,60,-99.99,,,0.00,563,weatherlink.com 1.10,2013-05-28 23:28:00,
2013-05-28 16:43:00,74.2,59.0,29.80,WSW,253,0.0,-999.0,59,-99.99,,,0.00,515,weatherlink.com 1.10,2013-05-28 23:43:00,
2013-05-28 16:58:00,74.4,59.0,29.79,South,176,0.0,-999.0,60,-99.99,,,0.00,464,weatherlink.com 1.10,2013-05-28 23:58:00,
2013-05-28 17:13:00,74.6,59.0,29.79,SSW,211,5.0,-999.0,58,-99.99,,,0.00,418,weatherlink.com 1.10,2013-05-29 00:13:00,
2013-05-28 17:28:00,74.5,59.0,29.78,SSE,158,2.0,-999.0,58,-99.99,,,0.00,371,weatherlink.com 1.10,2013-05-29 00:28:00,
2013-05-28 17:43:00,74.0,58.0,29.78,SSW,210,4.0,-999.0,58,-99.99,,,0.00,322,weatherlink.com 1.10,2013-05-29 00:43:00,
2013-05-28 17:58:00,73.0,58.0,29.78,SW,217,1.0,-999.0,59,-99.99,,,0.00,265,weatherlink.com 1.10,2013-05-29 00:58:00,
2013-05-28 18:13:00,71.5,58.0,29.79,SSW,196,5.0,-999.0,62,-99.99,,,0.00,90,weatherlink.com 1.10,2013-05-29 01:13:00,
2013-05-28 18:28:00,70.5,58.0,29.78,South,186,0.0,-999.0,64,-99.99,,,0.00,141,weatherlink.com 1.10,2013-05-29 01:28:00,
2013-05-28 18:43:00,70.6,58.0,29.78,SSE,162,1.0,-999.0,64,-99.99,,,0.00,46,weatherlink.com 1.10,2013-05-29 01:43:00,
2013-05-28 18:58:00,70.3,58.0,29.78,South,190,1.0,-999.0,65,-99.99,,,0.00,51,weatherlink.com 1.10,2013-05-29 01:58:00,
2013-05-28 19:13:00,69.8,58.0,29.78,SSW,193,0.0,-999.0,67,-99.99,,,0.00,23,weatherlink.com 1.10,2013-05-29 02:13:00,
2013-05-28 19:28:00,68.9,57.0,29.78,SSW,197,0.0,-999.0,67,-99.99,,,0.00,16,weatherlink.com 1.10,2013-05-29 02:28:00,
2013-05-28 19:43:00,68.2,58.0,29.78,SSE,162,3.0,-999.0,69,-99.99,,,0.00,9,weatherlink.com 1.10,2013-05-29 02:43:00,
2013-05-28 19:58:00,67.4,58.0,29.78,South,174,0.0,-999.0,72,-99.99,,,0.00,0,weatherlink.com 1.10,2013-05-29 02:58:00,
2013-05-28 20:13:00,66.6,58.0,29.78,SSE,153,0.0,-999.0,73,-99.99,,,0.00,0,weatherlink.com 1.10,2013-05-29 03:13:00,
2013-05-28 20:28:00,66.0,58.0,29.77,ESE,113,0.0,-999.0,75,-99.99,,,0.00,0,weatherlink.com 1.10,2013-05-29 03:28:00,
2013-05-28 20:43:00,65.5,58.0,29.78,SE,146,0.0,-999.0,76,-99.99,,,0.00,0,weatherlink.com 1.10,2013-05-29 03:43:00,
2013-05-28 20:58:00,65.0,58.0,29.78,SE,136,2.0,-999.0,78,-99.99,,,0.00,0,weatherlink.com 1.10,2013-05-29 03:58:00,
2013-05-28 21:13:00,64.7,58.0,29.79,SE,139,1.0,-999.0,79,-99.99,,,0.00,0,weatherlink.com 1.10,2013-05-29 04:13:00,
2013-05-28 21:28:00,64.2,58.0,29.80,SE,140,0.0,-999.0,80,-99.99,,,0.00,0,weatherlink.com 1.10,2013-05-29 04:28:00,
2013-05-28 21:43:00,63.8,58.0,29.80,SE,128,0.0,-999.0,80,-99.99,,,0.00,0,weatherlink.com 1.10,2013-05-29 04:43:00,
2013-05-28 21:58:00,63.1,57.0,29.80,East,95,0.0,-999.0,81,-99.99,,,0.00,0,weatherlink.com 1.10,2013-05-29 04:58:00,
2013-05-28 22:13:00,62.6,57.0,29.81,SE,145,0.0,-999.0,82,-99.99,,,0.00,0,weatherlink.com 1.10,2013-05-29 05:13:00,
2013-05-28 22:28:00,62.3,57.0,29.81,SE,139,0.0,-999.0,82,-99.99,,,0.00,0,weatherlink.com 1.10,2013-05-29 05:28:00,
2013-05-28 22:43:00,62.0,57.0,29.81,ENE,74,0.0,-999.0,83,-99.99,,,0.00,0,weatherlink.com 1.10,2013-05-29 05:43:00,
2013-05-28 22:58:00,61.7,56.0,29.81,ENE,74,0.0,-999.0,82,-99.99,,,0.00,0,weatherlink.com 1.10,2013-05-29 05:58:00,
2013-05-28 23:13:00,61.1,56.0,29.81,ENE,74,0.0,-999.0,84,-99.99,,,0.00,0,weatherlink.com 1.10,2013-05-29 06:13:00,
2013-05-28 23:28:00,60.5,55.0,29.81,ENE,74,0.0,-999.0,83,-99.99,,,0.00,0,weatherlink.com 1.10,2013-05-29 06:28:00,
2013-05-28 23:44:00,59.9,55.0,29.81,ENE,75,0.0,-999.0,84,-99.99,,,0.00,0,weatherlink.com 1.10,2013-05-29 06:44:00,
2013-05-28 23:59:00,59.1,54.0,29.81,ENE,75,0.0,-999.0,84,-99.99,,,0.00,0,weatherlink.com 1.10,2013-05-29 06:59:00,